sensor_id;sensor_type;location;lat;lon;timestamp;P1;durP1;ratioP1;P2;durP2;ratioP2
55003;SDS011;40900;52.710;6.438;2023-08-06T00:00:20;15.70;;;13.23;;
55003;SDS011;40900;52.710;6.438;2023-08-06T00:02:46;14.95;;;12.52;;
55003;SDS011;40900;52.710;6.438;2023-08-06T00:05:12;14.63;;;11.95;;
55003;SDS011;40900;52.710;6.438;2023-08-06T00:07:38;15.02;;;12.15;;
55003;SDS011;40900;52.710;6.438;2023-08-06T00:10:04;13.30;;;11.48;;
55003;SDS011;40900;52.710;6.438;2023-08-06T00:12:30;15.20;;;11.40;;
55003;SDS011;40900;52.710;6.438;2023-08-06T00:14:56;15.50;;;11.05;;
55003;SDS011;40900;52.710;6.438;2023-08-06T00:17:21;13.77;;;11.93;;
55003;SDS011;40900;52.710;6.438;2023-08-06T00:19:47;12.65;;;10.98;;
55003;SDS011;40900;52.710;6.438;2023-08-06T00:22:13;14.13;;;12.25;;
55003;SDS011;40900;52.710;6.438;2023-08-06T00:24:38;12.85;;;11.50;;
55003;SDS011;40900;52.710;6.438;2023-08-06T00:27:04;12.13;;;10.55;;
55003;SDS011;40900;52.710;6.438;2023-08-06T00:29:30;16.23;;;10.73;;
55003;SDS011;40900;52.710;6.438;2023-08-06T00:31:56;14.02;;;11.43;;
55003;SDS011;40900;52.710;6.438;2023-08-06T00:34:21;19.27;;;11.68;;
55003;SDS011;40900;52.710;6.438;2023-08-06T00:36:47;14.65;;;11.20;;
55003;SDS011;40900;52.710;6.438;2023-08-06T00:39:13;11.70;;;10.40;;
55003;SDS011;40900;52.710;6.438;2023-08-06T00:41:38;12.35;;;10.45;;
55003;SDS011;40900;52.710;6.438;2023-08-06T00:44:04;13.85;;;10.73;;
55003;SDS011;40900;52.710;6.438;2023-08-06T00:46:30;13.10;;;11.73;;
55003;SDS011;40900;52.710;6.438;2023-08-06T00:48:57;13.18;;;11.23;;
55003;SDS011;40900;52.710;6.438;2023-08-06T00:51:23;15.52;;;10.35;;
55003;SDS011;40900;52.710;6.438;2023-08-06T00:53:50;13.35;;;10.70;;
55003;SDS011;40900;52.710;6.438;2023-08-06T00:56:17;13.73;;;11.32;;
55003;SDS011;40900;52.710;6.438;2023-08-06T00:58:44;14.68;;;10.90;;
55003;SDS011;40900;52.710;6.438;2023-08-06T01:01:10;13.73;;;11.05;;
55003;SDS011;40900;52.710;6.438;2023-08-06T01:03:36;15.50;;;11.07;;
55003;SDS011;40900;52.710;6.438;2023-08-06T01:06:02;14.45;;;11.32;;
55003;SDS011;40900;52.710;6.438;2023-08-06T01:16:53;12.07;;;10.82;;
55003;SDS011;40900;52.710;6.438;2023-08-06T01:19:20;13.88;;;10.80;;
55003;SDS011;40900;52.710;6.438;2023-08-06T01:21:46;13.95;;;11.52;;
55003;SDS011;40900;52.710;6.438;2023-08-06T01:24:12;15.68;;;12.32;;
55003;SDS011;40900;52.710;6.438;2023-08-06T01:31:38;14.48;;;12.63;;
55003;SDS011;40900;52.710;6.438;2023-08-06T01:34:07;15.30;;;12.55;;
55003;SDS011;40900;52.710;6.438;2023-08-06T01:36:45;17.77;;;13.55;;
55003;SDS011;40900;52.710;6.438;2023-08-06T01:39:11;14.35;;;12.63;;
55003;SDS011;40900;52.710;6.438;2023-08-06T01:41:37;15.30;;;12.75;;
55003;SDS011;40900;52.710;6.438;2023-08-06T01:44:03;15.23;;;12.52;;
55003;SDS011;40900;52.710;6.438;2023-08-06T01:46:29;18.30;;;13.50;;
55003;SDS011;40900;52.710;6.438;2023-08-06T01:48:54;15.20;;;12.68;;
55003;SDS011;40900;52.710;6.438;2023-08-06T01:51:20;13.70;;;12.27;;
55003;SDS011;40900;52.710;6.438;2023-08-06T01:53:46;15.77;;;13.30;;
55003;SDS011;40900;52.710;6.438;2023-08-06T01:56:11;14.70;;;13.07;;
55003;SDS011;40900;52.710;6.438;2023-08-06T01:58:37;14.68;;;13.13;;
55003;SDS011;40900;52.710;6.438;2023-08-06T02:01:03;17.30;;;14.15;;
55003;SDS011;40900;52.710;6.438;2023-08-06T02:03:28;19.48;;;13.40;;
55003;SDS011;40900;52.710;6.438;2023-08-06T02:05:54;14.30;;;12.85;;
55003;SDS011;40900;52.710;6.438;2023-08-06T02:08:20;18.83;;;13.77;;
55003;SDS011;40900;52.710;6.438;2023-08-06T02:10:46;18.33;;;13.77;;
55003;SDS011;40900;52.710;6.438;2023-08-06T02:13:11;14.00;;;12.60;;
55003;SDS011;40900;52.710;6.438;2023-08-06T02:15:46;18.85;;;13.90;;
55003;SDS011;40900;52.710;6.438;2023-08-06T02:18:15;21.33;;;14.60;;
55003;SDS011;40900;52.710;6.438;2023-08-06T02:20:41;14.25;;;12.75;;
55003;SDS011;40900;52.710;6.438;2023-08-06T02:23:07;15.75;;;12.48;;
55003;SDS011;40900;52.710;6.438;2023-08-06T02:25:33;22.95;;;13.98;;
55003;SDS011;40900;52.710;6.438;2023-08-06T02:27:59;18.25;;;13.50;;
55003;SDS011;40900;52.710;6.438;2023-08-06T02:30:25;15.18;;;13.23;;
55003;SDS011;40900;52.710;6.438;2023-08-06T02:32:51;14.02;;;12.52;;
55003;SDS011;40900;52.710;6.438;2023-08-06T02:35:17;14.88;;;13.20;;
55003;SDS011;40900;52.710;6.438;2023-08-06T02:37:43;14.57;;;13.02;;
55003;SDS011;40900;52.710;6.438;2023-08-06T02:40:09;15.77;;;13.25;;
55003;SDS011;40900;52.710;6.438;2023-08-06T02:42:35;14.75;;;13.15;;
55003;SDS011;40900;52.710;6.438;2023-08-06T02:45:00;14.38;;;12.88;;
55003;SDS011;40900;52.710;6.438;2023-08-06T02:47:26;16.63;;;14.07;;
55003;SDS011;40900;52.710;6.438;2023-08-06T02:49:52;17.88;;;13.70;;
55003;SDS011;40900;52.710;6.438;2023-08-06T02:52:18;16.70;;;13.40;;
55003;SDS011;40900;52.710;6.438;2023-08-06T02:54:43;17.15;;;12.32;;
55003;SDS011;40900;52.710;6.438;2023-08-06T02:57:09;15.50;;;13.32;;
55003;SDS011;40900;52.710;6.438;2023-08-06T02:59:35;16.65;;;12.60;;
55003;SDS011;40900;52.710;6.438;2023-08-06T03:02:01;17.05;;;12.73;;
55003;SDS011;40900;52.710;6.438;2023-08-06T03:04:27;20.10;;;12.95;;
55003;SDS011;40900;52.710;6.438;2023-08-06T03:06:52;20.48;;;13.38;;
55003;SDS011;40900;52.710;6.438;2023-08-06T03:09:18;17.08;;;13.30;;
55003;SDS011;40900;52.710;6.438;2023-08-06T03:11:44;18.67;;;13.13;;
55003;SDS011;40900;52.710;6.438;2023-08-06T03:14:10;13.50;;;11.18;;
55003;SDS011;40900;52.710;6.438;2023-08-06T03:16:35;18.17;;;13.10;;
55003;SDS011;40900;52.710;6.438;2023-08-06T03:19:01;15.43;;;12.02;;
55003;SDS011;40900;52.710;6.438;2023-08-06T03:21:27;16.02;;;12.85;;
55003;SDS011;40900;52.710;6.438;2023-08-06T03:23:53;15.40;;;11.35;;
55003;SDS011;40900;52.710;6.438;2023-08-06T03:26:18;16.02;;;12.25;;
55003;SDS011;40900;52.710;6.438;2023-08-06T03:28:44;14.65;;;13.13;;
55003;SDS011;40900;52.710;6.438;2023-08-06T03:31:10;14.20;;;12.35;;
55003;SDS011;40900;52.710;6.438;2023-08-06T03:33:35;13.38;;;11.98;;
55003;SDS011;40900;52.710;6.438;2023-08-06T03:36:01;16.67;;;11.45;;
55003;SDS011;40900;52.710;6.438;2023-08-06T03:38:27;15.48;;;12.80;;
55003;SDS011;40900;52.710;6.438;2023-08-06T03:40:53;13.85;;;11.52;;
55003;SDS011;40900;52.710;6.438;2023-08-06T03:43:19;15.13;;;13.23;;
55003;SDS011;40900;52.710;6.438;2023-08-06T03:45:44;13.82;;;12.40;;
55003;SDS011;40900;52.710;6.438;2023-08-06T03:48:11;14.18;;;12.68;;
55003;SDS011;40900;52.710;6.438;2023-08-06T03:50:37;16.10;;;12.73;;
55003;SDS011;40900;52.710;6.438;2023-08-06T03:53:03;13.50;;;12.15;;
55003;SDS011;40900;52.710;6.438;2023-08-06T03:55:29;15.07;;;12.57;;
55003;SDS011;40900;52.710;6.438;2023-08-06T03:57:54;14.43;;;12.77;;
55003;SDS011;40900;52.710;6.438;2023-08-06T04:00:20;16.38;;;12.98;;
55003;SDS011;40900;52.710;6.438;2023-08-06T04:02:46;16.92;;;12.90;;
55003;SDS011;40900;52.710;6.438;2023-08-06T04:05:11;18.02;;;13.15;;
55003;SDS011;40900;52.710;6.438;2023-08-06T04:07:37;13.68;;;12.00;;
55003;SDS011;40900;52.710;6.438;2023-08-06T04:10:04;15.35;;;12.90;;
55003;SDS011;40900;52.710;6.438;2023-08-06T04:12:30;17.92;;;13.00;;
55003;SDS011;40900;52.710;6.438;2023-08-06T04:14:58;18.17;;;13.88;;
55003;SDS011;40900;52.710;6.438;2023-08-06T04:17:24;14.73;;;12.82;;
55003;SDS011;40900;52.710;6.438;2023-08-06T04:19:51;14.77;;;12.43;;
55003;SDS011;40900;52.710;6.438;2023-08-06T04:22:18;16.48;;;12.88;;
55003;SDS011;40900;52.710;6.438;2023-08-06T04:24:44;17.15;;;13.05;;
55003;SDS011;40900;52.710;6.438;2023-08-06T04:27:10;14.27;;;11.88;;
55003;SDS011;40900;52.710;6.438;2023-08-06T04:29:36;13.52;;;12.13;;
55003;SDS011;40900;52.710;6.438;2023-08-06T04:32:06;14.75;;;13.07;;
55003;SDS011;40900;52.710;6.438;2023-08-06T04:34:37;14.55;;;13.05;;
55003;SDS011;40900;52.710;6.438;2023-08-06T04:37:02;16.73;;;13.18;;
55003;SDS011;40900;52.710;6.438;2023-08-06T04:39:29;18.77;;;13.07;;
55003;SDS011;40900;52.710;6.438;2023-08-06T04:41:56;18.38;;;13.27;;
55003;SDS011;40900;52.710;6.438;2023-08-06T04:44:25;15.40;;;13.07;;
55003;SDS011;40900;52.710;6.438;2023-08-06T04:46:51;15.77;;;13.02;;
55003;SDS011;40900;52.710;6.438;2023-08-06T04:49:17;18.38;;;13.52;;
55003;SDS011;40900;52.710;6.438;2023-08-06T04:51:44;15.07;;;11.85;;
55003;SDS011;40900;52.710;6.438;2023-08-06T04:54:10;14.73;;;12.00;;
55003;SDS011;40900;52.710;6.438;2023-08-06T04:56:35;16.02;;;12.25;;
55003;SDS011;40900;52.710;6.438;2023-08-06T04:59:01;15.85;;;12.68;;
55003;SDS011;40900;52.710;6.438;2023-08-06T05:01:27;15.02;;;12.80;;
55003;SDS011;40900;52.710;6.438;2023-08-06T05:03:53;16.90;;;12.13;;
55003;SDS011;40900;52.710;6.438;2023-08-06T05:06:19;16.80;;;12.68;;
55003;SDS011;40900;52.710;6.438;2023-08-06T05:08:45;14.90;;;12.98;;
55003;SDS011;40900;52.710;6.438;2023-08-06T05:11:10;14.75;;;13.20;;
55003;SDS011;40900;52.710;6.438;2023-08-06T05:13:36;13.80;;;12.40;;
55003;SDS011;40900;52.710;6.438;2023-08-06T05:16:02;14.05;;;12.20;;
55003;SDS011;40900;52.710;6.438;2023-08-06T05:18:28;14.43;;;12.93;;
55003;SDS011;40900;52.710;6.438;2023-08-06T05:20:55;14.60;;;12.85;;
55003;SDS011;40900;52.710;6.438;2023-08-06T05:23:21;13.65;;;12.15;;
55003;SDS011;40900;52.710;6.438;2023-08-06T05:25:47;13.90;;;12.43;;
55003;SDS011;40900;52.710;6.438;2023-08-06T05:28:12;15.40;;;12.65;;
55003;SDS011;40900;52.710;6.438;2023-08-06T05:30:41;13.98;;;12.52;;
55003;SDS011;40900;52.710;6.438;2023-08-06T05:33:07;16.02;;;12.07;;
55003;SDS011;40900;52.710;6.438;2023-08-06T05:35:32;15.48;;;13.32;;
55003;SDS011;40900;52.710;6.438;2023-08-06T05:37:58;15.57;;;12.75;;
55003;SDS011;40900;52.710;6.438;2023-08-06T05:40:24;13.90;;;12.45;;
55003;SDS011;40900;52.710;6.438;2023-08-06T05:42:51;16.40;;;12.63;;
55003;SDS011;40900;52.710;6.438;2023-08-06T05:45:18;14.55;;;12.70;;
55003;SDS011;40900;52.710;6.438;2023-08-06T05:47:44;14.35;;;12.85;;
55003;SDS011;40900;52.710;6.438;2023-08-06T05:50:10;16.83;;;13.02;;
55003;SDS011;40900;52.710;6.438;2023-08-06T05:52:35;15.65;;;13.75;;
55003;SDS011;40900;52.710;6.438;2023-08-06T05:55:01;15.57;;;12.52;;
55003;SDS011;40900;52.710;6.438;2023-08-06T05:57:27;14.75;;;12.75;;
55003;SDS011;40900;52.710;6.438;2023-08-06T05:59:52;17.00;;;12.52;;
55003;SDS011;40900;52.710;6.438;2023-08-06T06:02:18;13.20;;;11.90;;
55003;SDS011;40900;52.710;6.438;2023-08-06T06:04:44;14.10;;;12.70;;
55003;SDS011;40900;52.710;6.438;2023-08-06T06:07:10;15.60;;;13.88;;
55003;SDS011;40900;52.710;6.438;2023-08-06T06:09:36;14.88;;;13.23;;
55003;SDS011;40900;52.710;6.438;2023-08-06T06:12:04;14.70;;;13.20;;
55003;SDS011;40900;52.710;6.438;2023-08-06T06:14:31;14.25;;;12.52;;
55003;SDS011;40900;52.710;6.438;2023-08-06T06:16:57;15.52;;;13.05;;
55003;SDS011;40900;52.710;6.438;2023-08-06T06:19:23;15.65;;;13.52;;
55003;SDS011;40900;52.710;6.438;2023-08-06T06:21:49;15.48;;;13.88;;
55003;SDS011;40900;52.710;6.438;2023-08-06T06:24:15;15.50;;;13.32;;
55003;SDS011;40900;52.710;6.438;2023-08-06T06:26:40;19.52;;;14.35;;
55003;SDS011;40900;52.710;6.438;2023-08-06T06:29:06;15.65;;;13.90;;
55003;SDS011;40900;52.710;6.438;2023-08-06T06:31:32;16.90;;;13.50;;
55003;SDS011;40900;52.710;6.438;2023-08-06T06:33:58;16.13;;;14.48;;
55003;SDS011;40900;52.710;6.438;2023-08-06T06:36:23;17.25;;;13.48;;
55003;SDS011;40900;52.710;6.438;2023-08-06T06:38:49;17.08;;;13.80;;
55003;SDS011;40900;52.710;6.438;2023-08-06T06:41:15;15.00;;;13.48;;
55003;SDS011;40900;52.710;6.438;2023-08-06T06:43:40;16.98;;;15.00;;
55003;SDS011;40900;52.710;6.438;2023-08-06T06:46:07;16.13;;;14.43;;
55003;SDS011;40900;52.710;6.438;2023-08-06T06:48:32;17.95;;;14.48;;
55003;SDS011;40900;52.710;6.438;2023-08-06T06:50:58;15.95;;;14.45;;
55003;SDS011;40900;52.710;6.438;2023-08-06T06:53:24;16.60;;;14.90;;
55003;SDS011;40900;52.710;6.438;2023-08-06T06:55:56;16.95;;;14.25;;
55003;SDS011;40900;52.710;6.438;2023-08-06T06:58:26;17.25;;;14.48;;
55003;SDS011;40900;52.710;6.438;2023-08-06T07:00:52;17.58;;;15.82;;
55003;SDS011;40900;52.710;6.438;2023-08-06T07:03:19;17.08;;;15.32;;
55003;SDS011;40900;52.710;6.438;2023-08-06T07:05:45;19.38;;;15.27;;
55003;SDS011;40900;52.710;6.438;2023-08-06T07:08:11;19.58;;;16.08;;
55003;SDS011;40900;52.710;6.438;2023-08-06T07:10:37;16.90;;;15.02;;
55003;SDS011;40900;52.710;6.438;2023-08-06T07:13:03;18.67;;;16.13;;
55003;SDS011;40900;52.710;6.438;2023-08-06T07:15:29;17.20;;;15.35;;
55003;SDS011;40900;52.710;6.438;2023-08-06T07:17:55;17.02;;;15.43;;
55003;SDS011;40900;52.710;6.438;2023-08-06T07:20:20;16.80;;;15.25;;
55003;SDS011;40900;52.710;6.438;2023-08-06T07:22:46;17.50;;;15.57;;
55003;SDS011;40900;52.710;6.438;2023-08-06T07:25:12;20.02;;;15.00;;
55003;SDS011;40900;52.710;6.438;2023-08-06T07:27:38;17.17;;;15.35;;
55003;SDS011;40900;52.710;6.438;2023-08-06T07:30:04;18.63;;;16.58;;
55003;SDS011;40900;52.710;6.438;2023-08-06T07:32:30;17.45;;;15.85;;
55003;SDS011;40900;52.710;6.438;2023-08-06T07:34:56;20.67;;;16.45;;
55003;SDS011;40900;52.710;6.438;2023-08-06T07:37:25;17.33;;;15.50;;
55003;SDS011;40900;52.710;6.438;2023-08-06T07:39:53;16.67;;;14.93;;
55003;SDS011;40900;52.710;6.438;2023-08-06T07:42:19;16.65;;;14.85;;
55003;SDS011;40900;52.710;6.438;2023-08-06T07:44:55;16.52;;;14.93;;
55003;SDS011;40900;52.710;6.438;2023-08-06T07:47:22;16.00;;;14.50;;
55003;SDS011;40900;52.710;6.438;2023-08-06T07:49:48;17.45;;;15.65;;
55003;SDS011;40900;52.710;6.438;2023-08-06T07:52:13;18.67;;;16.88;;
55003;SDS011;40900;52.710;6.438;2023-08-06T07:54:39;17.58;;;15.88;;
55003;SDS011;40900;52.710;6.438;2023-08-06T07:57:05;19.48;;;17.67;;
55003;SDS011;40900;52.710;6.438;2023-08-06T07:59:31;19.67;;;17.77;;
55003;SDS011;40900;52.710;6.438;2023-08-06T08:01:57;18.30;;;16.60;;
55003;SDS011;40900;52.710;6.438;2023-08-06T08:04:23;18.63;;;16.90;;
55003;SDS011;40900;52.710;6.438;2023-08-06T08:06:49;18.98;;;17.08;;
55003;SDS011;40900;52.710;6.438;2023-08-06T08:09:15;17.75;;;15.98;;
55003;SDS011;40900;52.710;6.438;2023-08-06T08:11:41;17.60;;;15.82;;
55003;SDS011;40900;52.710;6.438;2023-08-06T08:14:07;18.55;;;16.52;;
55003;SDS011;40900;52.710;6.438;2023-08-06T08:16:33;17.55;;;15.85;;
55003;SDS011;40900;52.710;6.438;2023-08-06T08:18:59;17.60;;;15.63;;
55003;SDS011;40900;52.710;6.438;2023-08-06T08:21:25;18.50;;;16.20;;
55003;SDS011;40900;52.710;6.438;2023-08-06T08:23:51;19.08;;;17.23;;
55003;SDS011;40900;52.710;6.438;2023-08-06T08:26:16;17.58;;;15.88;;
55003;SDS011;40900;52.710;6.438;2023-08-06T08:28:42;17.65;;;15.95;;
55003;SDS011;40900;52.710;6.438;2023-08-06T08:31:08;20.55;;;17.83;;
55003;SDS011;40900;52.710;6.438;2023-08-06T08:33:36;18.08;;;16.33;;
55003;SDS011;40900;52.710;6.438;2023-08-06T08:36:05;20.02;;;16.02;;
55003;SDS011;40900;52.710;6.438;2023-08-06T08:38:30;18.70;;;16.90;;
55003;SDS011;40900;52.710;6.438;2023-08-06T08:40:56;20.65;;;16.13;;
55003;SDS011;40900;52.710;6.438;2023-08-06T08:43:22;16.75;;;15.07;;
55003;SDS011;40900;52.710;6.438;2023-08-06T08:45:52;18.35;;;14.65;;
55003;SDS011;40900;52.710;6.438;2023-08-06T08:48:20;15.70;;;14.10;;
55003;SDS011;40900;52.710;6.438;2023-08-06T08:50:48;15.70;;;14.05;;
55003;SDS011;40900;52.710;6.438;2023-08-06T08:53:15;17.70;;;15.00;;
55003;SDS011;40900;52.710;6.438;2023-08-06T08:55:47;17.40;;;14.45;;
55003;SDS011;40900;52.710;6.438;2023-08-06T08:58:13;15.88;;;14.20;;
55003;SDS011;40900;52.710;6.438;2023-08-06T09:00:42;15.43;;;13.82;;
55003;SDS011;40900;52.710;6.438;2023-08-06T09:03:11;15.32;;;13.68;;
55003;SDS011;40900;52.710;6.438;2023-08-06T09:05:37;15.07;;;13.38;;
55003;SDS011;40900;52.710;6.438;2023-08-06T09:08:09;13.88;;;12.52;;
55003;SDS011;40900;52.710;6.438;2023-08-06T09:10:39;15.38;;;13.30;;
55003;SDS011;40900;52.710;6.438;2023-08-06T09:13:07;13.90;;;12.43;;
55003;SDS011;40900;52.710;6.438;2023-08-06T09:15:34;15.43;;;12.48;;
55003;SDS011;40900;52.710;6.438;2023-08-06T09:17:59;12.57;;;11.38;;
55003;SDS011;40900;52.710;6.438;2023-08-06T09:20:25;11.88;;;10.68;;
55003;SDS011;40900;52.710;6.438;2023-08-06T09:22:54;11.52;;;10.40;;
55003;SDS011;40900;52.710;6.438;2023-08-06T09:25:23;11.85;;;9.85;;
55003;SDS011;40900;52.710;6.438;2023-08-06T09:27:50;12.57;;;10.23;;
55003;SDS011;40900;52.710;6.438;2023-08-06T09:30:29;11.30;;;10.20;;
55003;SDS011;40900;52.710;6.438;2023-08-06T09:32:56;11.02;;;9.93;;
55003;SDS011;40900;52.710;6.438;2023-08-06T09:35:22;14.95;;;10.93;;
55003;SDS011;40900;52.710;6.438;2023-08-06T09:37:48;11.13;;;10.02;;
55003;SDS011;40900;52.710;6.438;2023-08-06T09:40:30;11.48;;;9.88;;
55003;SDS011;40900;52.710;6.438;2023-08-06T09:42:57;11.10;;;9.68;;
55003;SDS011;40900;52.710;6.438;2023-08-06T09:45:23;11.98;;;9.07;;
55003;SDS011;40900;52.710;6.438;2023-08-06T09:47:55;10.40;;;9.13;;
55003;SDS011;40900;52.710;6.438;2023-08-06T09:50:22;9.40;;;8.50;;
55003;SDS011;40900;52.710;6.438;2023-08-06T09:52:48;8.38;;;7.55;;
55003;SDS011;40900;52.710;6.438;2023-08-06T09:55:15;8.60;;;7.80;;
55003;SDS011;40900;52.710;6.438;2023-08-06T09:57:41;7.85;;;7.10;;
55003;SDS011;40900;52.710;6.438;2023-08-06T10:00:08;10.80;;;7.32;;
55003;SDS011;40900;52.710;6.438;2023-08-06T10:02:37;7.63;;;6.43;;
55003;SDS011;40900;52.710;6.438;2023-08-06T10:05:04;7.95;;;7.20;;
55003;SDS011;40900;52.710;6.438;2023-08-06T10:07:30;9.30;;;7.60;;
55003;SDS011;40900;52.710;6.438;2023-08-06T10:09:58;8.98;;;7.53;;
55003;SDS011;40900;52.710;6.438;2023-08-06T10:12:24;7.88;;;6.60;;
55003;SDS011;40900;52.710;6.438;2023-08-06T10:14:54;8.60;;;7.05;;
55003;SDS011;40900;52.710;6.438;2023-08-06T10:17:22;8.90;;;7.47;;
55003;SDS011;40900;52.710;6.438;2023-08-06T10:19:49;8.48;;;7.47;;
55003;SDS011;40900;52.710;6.438;2023-08-06T10:22:16;10.90;;;7.75;;
55003;SDS011;40900;52.710;6.438;2023-08-06T10:24:58;7.22;;;6.43;;
55003;SDS011;40900;52.710;6.438;2023-08-06T10:27:30;6.85;;;6.25;;
55003;SDS011;40900;52.710;6.438;2023-08-06T10:33:03;7.28;;;5.75;;
55003;SDS011;40900;52.710;6.438;2023-08-06T10:37:57;9.38;;;5.80;;
55003;SDS011;40900;52.710;6.438;2023-08-06T10:40:53;6.53;;;5.47;;
55003;SDS011;40900;52.710;6.438;2023-08-06T10:46:00;5.63;;;4.85;;
55003;SDS011;40900;52.710;6.438;2023-08-06T10:48:34;11.82;;;5.03;;
55003;SDS011;40900;52.710;6.438;2023-08-06T10:51:08;6.25;;;4.88;;
55003;SDS011;40900;52.710;6.438;2023-08-06T10:53:35;6.72;;;4.70;;
55003;SDS011;40900;52.710;6.438;2023-08-06T10:56:01;4.90;;;4.40;;
55003;SDS011;40900;52.710;6.438;2023-08-06T10:58:31;7.47;;;4.72;;
55003;SDS011;40900;52.710;6.438;2023-08-06T11:00:58;6.22;;;4.50;;
55003;SDS011;40900;52.710;6.438;2023-08-06T11:03:24;5.35;;;4.50;;
55003;SDS011;40900;52.710;6.438;2023-08-06T11:05:51;5.15;;;4.25;;
55003;SDS011;40900;52.710;6.438;2023-08-06T11:08:24;6.18;;;5.10;;
55003;SDS011;40900;52.710;6.438;2023-08-06T11:10:51;7.28;;;5.40;;
55003;SDS011;40900;52.710;6.438;2023-08-06T11:13:17;5.00;;;4.50;;
55003;SDS011;40900;52.710;6.438;2023-08-06T11:15:44;5.47;;;4.40;;
55003;SDS011;40900;52.710;6.438;2023-08-06T11:18:10;4.40;;;3.80;;
55003;SDS011;40900;52.710;6.438;2023-08-06T11:20:36;4.60;;;3.92;;
55003;SDS011;40900;52.710;6.438;2023-08-06T11:23:03;7.85;;;4.28;;
55003;SDS011;40900;52.710;6.438;2023-08-06T11:25:29;5.75;;;4.40;;
55003;SDS011;40900;52.710;6.438;2023-08-06T11:27:55;4.55;;;4.15;;
55003;SDS011;40900;52.710;6.438;2023-08-06T11:30:21;4.85;;;3.70;;
55003;SDS011;40900;52.710;6.438;2023-08-06T11:32:47;5.93;;;3.95;;
55003;SDS011;40900;52.710;6.438;2023-08-06T11:35:14;5.60;;;3.53;;
55003;SDS011;40900;52.710;6.438;2023-08-06T11:37:44;4.43;;;3.05;;
55003;SDS011;40900;52.710;6.438;2023-08-06T11:40:14;4.78;;;3.30;;
55003;SDS011;40900;52.710;6.438;2023-08-06T11:42:40;4.28;;;3.58;;
55003;SDS011;40900;52.710;6.438;2023-08-06T11:45:07;4.80;;;3.05;;
55003;SDS011;40900;52.710;6.438;2023-08-06T11:47:34;4.30;;;3.05;;
55003;SDS011;40900;52.710;6.438;2023-08-06T11:50:04;4.07;;;2.88;;
55003;SDS011;40900;52.710;6.438;2023-08-06T11:52:30;3.83;;;2.88;;
55003;SDS011;40900;52.710;6.438;2023-08-06T11:55:03;2.75;;;2.17;;
55003;SDS011;40900;52.710;6.438;2023-08-06T11:57:35;2.85;;;2.50;;
55003;SDS011;40900;52.710;6.438;2023-08-06T12:00:11;5.25;;;2.00;;
55003;SDS011;40900;52.710;6.438;2023-08-06T12:02:42;3.67;;;2.33;;
55003;SDS011;40900;52.710;6.438;2023-08-06T12:07:38;5.53;;;2.50;;
55003;SDS011;40900;52.710;6.438;2023-08-06T12:10:06;2.70;;;2.20;;
55003;SDS011;40900;52.710;6.438;2023-08-06T12:12:33;3.38;;;2.30;;
55003;SDS011;40900;52.710;6.438;2023-08-06T12:14:59;2.85;;;2.50;;
55003;SDS011;40900;52.710;6.438;2023-08-06T12:17:25;3.00;;;2.30;;
55003;SDS011;40900;52.710;6.438;2023-08-06T12:19:51;4.75;;;2.50;;
55003;SDS011;40900;52.710;6.438;2023-08-06T12:22:17;3.33;;;2.25;;
55003;SDS011;40900;52.710;6.438;2023-08-06T12:24:44;5.40;;;2.25;;
55003;SDS011;40900;52.710;6.438;2023-08-06T12:27:11;3.65;;;2.30;;
55003;SDS011;40900;52.710;6.438;2023-08-06T12:29:37;4.20;;;2.40;;
55003;SDS011;40900;52.710;6.438;2023-08-06T12:32:07;3.83;;;2.22;;
55003;SDS011;40900;52.710;6.438;2023-08-06T12:34:33;3.22;;;2.38;;
55003;SDS011;40900;52.710;6.438;2023-08-06T12:36:59;3.53;;;2.20;;
55003;SDS011;40900;52.710;6.438;2023-08-06T12:39:25;3.03;;;2.15;;
55003;SDS011;40900;52.710;6.438;2023-08-06T12:41:53;6.18;;;2.20;;
55003;SDS011;40900;52.710;6.438;2023-08-06T12:44:20;4.40;;;2.40;;
55003;SDS011;40900;52.710;6.438;2023-08-06T12:46:46;3.53;;;2.28;;
55003;SDS011;40900;52.710;6.438;2023-08-06T12:49:12;2.95;;;2.20;;
55003;SDS011;40900;52.710;6.438;2023-08-06T12:51:37;4.20;;;2.53;;
55003;SDS011;40900;52.710;6.438;2023-08-06T12:54:03;5.00;;;3.33;;
55003;SDS011;40900;52.710;6.438;2023-08-06T12:56:29;2.67;;;2.08;;
55003;SDS011;40900;52.710;6.438;2023-08-06T12:58:55;7.72;;;2.65;;
55003;SDS011;40900;52.710;6.438;2023-08-06T13:01:20;2.67;;;2.08;;
55003;SDS011;40900;52.710;6.438;2023-08-06T13:03:46;3.00;;;2.28;;
55003;SDS011;40900;52.710;6.438;2023-08-06T13:06:12;3.00;;;2.08;;
55003;SDS011;40900;52.710;6.438;2023-08-06T13:08:37;2.55;;;2.20;;
55003;SDS011;40900;52.710;6.438;2023-08-06T13:11:04;4.45;;;2.22;;
55003;SDS011;40900;52.710;6.438;2023-08-06T13:13:30;3.25;;;2.42;;
55003;SDS011;40900;52.710;6.438;2023-08-06T13:15:55;3.00;;;2.42;;
55003;SDS011;40900;52.710;6.438;2023-08-06T13:18:21;2.88;;;2.28;;
55003;SDS011;40900;52.710;6.438;2023-08-06T13:20:47;5.95;;;2.60;;
55003;SDS011;40900;52.710;6.438;2023-08-06T13:23:14;4.15;;;2.40;;
55003;SDS011;40900;52.710;6.438;2023-08-06T13:25:41;3.33;;;2.40;;
55003;SDS011;40900;52.710;6.438;2023-08-06T13:28:07;4.20;;;2.60;;
55003;SDS011;40900;52.710;6.438;2023-08-06T13:30:33;5.32;;;2.53;;
55003;SDS011;40900;52.710;6.438;2023-08-06T13:33:00;5.15;;;2.63;;
55003;SDS011;40900;52.710;6.438;2023-08-06T13:35:26;7.25;;;3.65;;
55003;SDS011;40900;52.710;6.438;2023-08-06T13:37:52;7.68;;;3.70;;
55003;SDS011;40900;52.710;6.438;2023-08-06T13:40:19;6.80;;;3.80;;
55003;SDS011;40900;52.710;6.438;2023-08-06T13:42:45;8.60;;;3.60;;
55003;SDS011;40900;52.710;6.438;2023-08-06T13:45:11;5.55;;;3.35;;
55003;SDS011;40900;52.710;6.438;2023-08-06T13:47:36;5.18;;;3.45;;
55003;SDS011;40900;52.710;6.438;2023-08-06T13:50:02;5.63;;;3.63;;
55003;SDS011;40900;52.710;6.438;2023-08-06T13:52:28;5.93;;;3.65;;
55003;SDS011;40900;52.710;6.438;2023-08-06T13:54:54;7.75;;;3.42;;
55003;SDS011;40900;52.710;6.438;2023-08-06T13:57:20;4.15;;;3.40;;
55003;SDS011;40900;52.710;6.438;2023-08-06T13:59:46;5.57;;;3.78;;
55003;SDS011;40900;52.710;6.438;2023-08-06T14:02:11;6.60;;;3.38;;
55003;SDS011;40900;52.710;6.438;2023-08-06T14:04:37;4.55;;;3.40;;
55003;SDS011;40900;52.710;6.438;2023-08-06T14:07:03;5.53;;;3.50;;
55003;SDS011;40900;52.710;6.438;2023-08-06T14:09:29;4.57;;;3.47;;
55003;SDS011;40900;52.710;6.438;2023-08-06T14:11:55;4.95;;;3.78;;
55003;SDS011;40900;52.710;6.438;2023-08-06T14:14:21;7.13;;;4.10;;
55003;SDS011;40900;52.710;6.438;2023-08-06T14:16:51;8.38;;;4.18;;
55003;SDS011;40900;52.710;6.438;2023-08-06T14:19:17;9.43;;;4.10;;
55003;SDS011;40900;52.710;6.438;2023-08-06T14:21:43;7.85;;;5.57;;
55003;SDS011;40900;52.710;6.438;2023-08-06T14:24:09;8.32;;;5.30;;
55003;SDS011;40900;52.710;6.438;2023-08-06T14:26:34;6.97;;;6.28;;
55003;SDS011;40900;52.710;6.438;2023-08-06T14:29:00;7.45;;;6.60;;
55003;SDS011;40900;52.710;6.438;2023-08-06T14:31:26;9.02;;;6.63;;
55003;SDS011;40900;52.710;6.438;2023-08-06T14:33:52;7.20;;;6.47;;
55003;SDS011;40900;52.710;6.438;2023-08-06T14:36:18;8.85;;;7.50;;
55003;SDS011;40900;52.710;6.438;2023-08-06T14:38:44;8.10;;;7.28;;
55003;SDS011;40900;52.710;6.438;2023-08-06T14:41:10;12.43;;;7.20;;
55003;SDS011;40900;52.710;6.438;2023-08-06T14:43:36;8.55;;;7.70;;
55003;SDS011;40900;52.710;6.438;2023-08-06T14:46:02;9.50;;;7.28;;
55003;SDS011;40900;52.710;6.438;2023-08-06T14:48:28;5.78;;;5.20;;
55003;SDS011;40900;52.710;6.438;2023-08-06T14:50:55;5.38;;;4.88;;